Language selection

My Weather Profile Weather Topics  | 

Queen Charlotte Strait: Past 24 Hour Conditions

 

West Sea Otter - 46204

02:00 PM PST 26 November 2022Buoy position: 51.4N 128.69W
Disclaimer

This table is a summary of hourly weather conditions for the past 24 hours.
Please note that these observations might not always be representative of weather conditions over their associated marine area.

Date / Time
(PST)
Wind(knots) Wave height(m) Wave period(s) Pressure(kPa) Air tempC) Water tempC)
26 November 2022
14:00 W 25 gust 33 4.5 10.2 101.2 9 10
13:00 SSW 28 gust 34 4.7 11.6 101.2 10 10
12:00 SSW 26 N/A N/A 101.3 10 10
11:00 SSW 28 gust 36 4.2 8.3 101.5 10 10
10:00 S 28 gust 35 3.8 9.8 101.6 10 10
9:00 S 26 gust 32 3.5 9.5 101.8 9 10
8:00 SSW 26 gust 32 3.7 10.7 101.9 10 10
7:00 SSW 24 gust 30 3.2 12.2 102.0 10 10
6:00 SSW 22 gust 27 3.1 12.8 102.1 10 10
5:00 SSW 20 gust 26 2.9 11.1 102.2 10 10
4:00 S 22 gust 28 3.3 11.6 102.2 10 10
3:00 SSW 19 gust 23 3.0 11.6 102.3 9 10
2:00 SSW 21 gust 26 3.0 12.2 102.3 9 10
1:00 SSW 19 gust 24 2.9 12.8 102.4 9 10
0:00 SSW 17 gust 20 2.8 11.6 102.4 9 10
25 November 2022
23:00 SSW 16 gust 21 3.0 12.8 102.5 9 10
22:00 SSW 15 gust 18 3.2 12.2 102.5 9 10
21:00 SW 12 gust 17 3.0 11.6 102.5 9 10
20:00 W 5 gust 9 3.4 12.8 102.5 8 10
19:00 SW 8 gust 11 3.1 13.5 102.4 8 10
18:00 SW 16 gust 19 2.9 10.7 102.4 9 10
17:00 SW 12 gust 14 3.0 11.6 102.4 9 10
16:00 SW 11 gust 14 3.0 11.6 102.3 9 10
15:00 W 11 gust 15 2.9 11.1 102.3 8 10
14:00 WSW 11 gust 14 3.0 11.6 102.2 10 10

Zoom-in to make a selection

Map of Pacific - South Coast marine weather areas South Nomad - 46036 Sentry Shoal - 46131 South Brooks - 46132 Halibut Bank - 46146 South Moresby - 46147 South Hecate Strait - 46185 West Sea Otter - 46204 La Perouse Bank - 46206 East Dellwood - 46207 Georgia Strait - 46303 English Bay - 46304 Discovery Island Esquimalt Harbour Kelp Reefs Malahat Race Rocks Lightstation Saturna Island Sheringham Point University of Victoria Victoria Gonzales Victoria Int'l Airport Ballenas Islands Campbell River Airport Comox Airport Entrance Island Fanny Island Nanaimo Airport Port Hardy Airport Sisters Islets Estevan Point Port Alberni Sartine Island Solander Island Tofino Airport Grief Point Howe Sound - Pam Rocks Powell River Airport Sechelt Squamish Airport Cape St.James Bella Bella Airport Bella Coola Airport Cathedral Point Herbert Island Point Atkinson Sand Heads Lightstation Tsawwassen Ferry Terminal Vancouver Int'l Airport Vancouver Harbour West Vancouver
Legend:
buoy Buoy
land station Land Station

Pacific - South Coast Area

Another Region

What we are doing

Date modified: